sensor_id;sensor_type;location;lat;lon;timestamp;P1;durP1;ratioP1;P2;durP2;ratioP2
21418;SDS011;10870;51.384;10.316;2023-03-11T00:00:27;15.07;;;7.40;;
21418;SDS011;10870;51.384;10.316;2023-03-11T00:02:29;7.43;;;5.72;;
21418;SDS011;10870;51.384;10.316;2023-03-11T00:04:30;9.13;;;6.43;;
21418;SDS011;10870;51.384;10.316;2023-03-11T00:06:34;8.60;;;6.28;;
21418;SDS011;10870;51.384;10.316;2023-03-11T00:08:35;11.40;;;6.95;;
21418;SDS011;10870;51.384;10.316;2023-03-11T00:10:38;11.70;;;7.05;;
21418;SDS011;10870;51.384;10.316;2023-03-11T00:12:42;12.68;;;8.18;;
21418;SDS011;10870;51.384;10.316;2023-03-11T00:14:46;10.38;;;7.38;;
21418;SDS011;10870;51.384;10.316;2023-03-11T00:16:47;10.88;;;7.82;;
21418;SDS011;10870;51.384;10.316;2023-03-11T00:18:49;8.07;;;6.60;;
21418;SDS011;10870;51.384;10.316;2023-03-11T00:20:52;10.35;;;6.18;;
21418;SDS011;10870;51.384;10.316;2023-03-11T00:22:56;9.30;;;6.10;;
21418;SDS011;10870;51.384;10.316;2023-03-11T00:25:00;9.50;;;6.68;;
21418;SDS011;10870;51.384;10.316;2023-03-11T00:27:04;9.18;;;5.55;;
21418;SDS011;10870;51.384;10.316;2023-03-11T00:29:06;8.13;;;5.18;;
21418;SDS011;10870;51.384;10.316;2023-03-11T00:31:09;9.18;;;5.78;;
21418;SDS011;10870;51.384;10.316;2023-03-11T00:33:11;10.23;;;5.20;;
21418;SDS011;10870;51.384;10.316;2023-03-11T00:35:14;9.35;;;5.80;;
21418;SDS011;10870;51.384;10.316;2023-03-11T00:37:16;6.95;;;5.20;;
21418;SDS011;10870;51.384;10.316;2023-03-11T00:39:17;7.78;;;5.82;;
21418;SDS011;10870;51.384;10.316;2023-03-11T00:41:24;7.32;;;5.25;;
21418;SDS011;10870;51.384;10.316;2023-03-11T00:43:26;8.85;;;5.93;;
21418;SDS011;10870;51.384;10.316;2023-03-11T00:45:27;10.35;;;6.50;;
21418;SDS011;10870;51.384;10.316;2023-03-11T00:47:30;6.55;;;4.53;;
21418;SDS011;10870;51.384;10.316;2023-03-11T00:49:34;8.55;;;5.20;;
21418;SDS011;10870;51.384;10.316;2023-03-11T00:51:38;7.43;;;5.22;;
21418;SDS011;10870;51.384;10.316;2023-03-11T00:53:42;7.45;;;5.30;;
21418;SDS011;10870;51.384;10.316;2023-03-11T00:55:46;7.28;;;4.50;;
21418;SDS011;10870;51.384;10.316;2023-03-11T00:57:53;8.95;;;6.18;;
21418;SDS011;10870;51.384;10.316;2023-03-11T00:59:57;7.88;;;4.82;;
21418;SDS011;10870;51.384;10.316;2023-03-11T01:02:01;7.07;;;4.90;;
21418;SDS011;10870;51.384;10.316;2023-03-11T01:04:02;6.55;;;4.32;;
21418;SDS011;10870;51.384;10.316;2023-03-11T01:06:04;7.90;;;4.82;;
21418;SDS011;10870;51.384;10.316;2023-03-11T01:08:05;7.15;;;4.63;;
21418;SDS011;10870;51.384;10.316;2023-03-11T01:10:09;6.20;;;4.07;;
21418;SDS011;10870;51.384;10.316;2023-03-11T01:12:12;5.68;;;3.80;;
21418;SDS011;10870;51.384;10.316;2023-03-11T01:14:13;5.43;;;4.20;;
21418;SDS011;10870;51.384;10.316;2023-03-11T01:16:17;6.20;;;4.22;;
21418;SDS011;10870;51.384;10.316;2023-03-11T01:18:22;6.43;;;4.38;;
21418;SDS011;10870;51.384;10.316;2023-03-11T01:20:24;5.75;;;4.22;;
21418;SDS011;10870;51.384;10.316;2023-03-11T01:22:28;4.97;;;3.60;;
21418;SDS011;10870;51.384;10.316;2023-03-11T01:24:31;6.00;;;4.40;;
21418;SDS011;10870;51.384;10.316;2023-03-11T01:26:37;4.13;;;3.45;;
21418;SDS011;10870;51.384;10.316;2023-03-11T01:28:39;4.72;;;3.40;;
21418;SDS011;10870;51.384;10.316;2023-03-11T01:30:40;5.32;;;3.10;;
21418;SDS011;10870;51.384;10.316;2023-03-11T01:32:42;3.53;;;2.70;;
21418;SDS011;10870;51.384;10.316;2023-03-11T01:34:46;5.50;;;3.30;;
21418;SDS011;10870;51.384;10.316;2023-03-11T01:36:48;5.35;;;3.38;;
21418;SDS011;10870;51.384;10.316;2023-03-11T01:38:52;4.65;;;3.55;;
21418;SDS011;10870;51.384;10.316;2023-03-11T01:40:55;5.57;;;4.40;;
21418;SDS011;10870;51.384;10.316;2023-03-11T01:43:00;5.00;;;3.50;;
21418;SDS011;10870;51.384;10.316;2023-03-11T01:45:08;3.75;;;3.10;;
21418;SDS011;10870;51.384;10.316;2023-03-11T01:49:29;4.35;;;2.70;;
21418;SDS011;10870;51.384;10.316;2023-03-11T01:53:35;3.35;;;2.65;;
21418;SDS011;10870;51.384;10.316;2023-03-11T01:55:37;4.00;;;2.85;;
21418;SDS011;10870;51.384;10.316;2023-03-11T01:57:41;3.00;;;2.40;;
21418;SDS011;10870;51.384;10.316;2023-03-11T01:59:47;4.20;;;2.80;;
21418;SDS011;10870;51.384;10.316;2023-03-11T02:03:57;3.50;;;2.80;;
21418;SDS011;10870;51.384;10.316;2023-03-11T02:05:59;4.70;;;3.35;;
21418;SDS011;10870;51.384;10.316;2023-03-11T02:08:01;3.50;;;3.05;;
21418;SDS011;10870;51.384;10.316;2023-03-11T02:10:05;3.47;;;2.55;;
21418;SDS011;10870;51.384;10.316;2023-03-11T02:12:12;2.75;;;2.45;;
21418;SDS011;10870;51.384;10.316;2023-03-11T02:14:14;3.13;;;2.72;;
21418;SDS011;10870;51.384;10.316;2023-03-11T02:16:16;4.80;;;3.42;;
21418;SDS011;10870;51.384;10.316;2023-03-11T02:18:18;5.82;;;3.33;;
21418;SDS011;10870;51.384;10.316;2023-03-11T02:22:41;3.70;;;2.67;;
21418;SDS011;10870;51.384;10.316;2023-03-11T02:24:49;5.72;;;2.92;;
21418;SDS011;10870;51.384;10.316;2023-03-11T02:26:55;3.28;;;2.80;;
21418;SDS011;10870;51.384;10.316;2023-03-11T02:28:56;6.05;;;3.47;;
21418;SDS011;10870;51.384;10.316;2023-03-11T02:30:58;5.30;;;2.80;;
21418;SDS011;10870;51.384;10.316;2023-03-11T02:33:02;5.78;;;3.00;;
21418;SDS011;10870;51.384;10.316;2023-03-11T02:35:05;4.40;;;3.05;;
21418;SDS011;10870;51.384;10.316;2023-03-11T02:37:08;4.43;;;3.25;;
21418;SDS011;10870;51.384;10.316;2023-03-11T02:39:09;5.60;;;3.17;;
21418;SDS011;10870;51.384;10.316;2023-03-11T02:41:13;3.42;;;2.13;;
21418;SDS011;10870;51.384;10.316;2023-03-11T02:44:00;3.65;;;2.72;;
21418;SDS011;10870;51.384;10.316;2023-03-11T02:45:42;4.70;;;2.72;;
21418;SDS011;10870;51.384;10.316;2023-03-11T02:47:47;2.85;;;2.55;;
21418;SDS011;10870;51.384;10.316;2023-03-11T02:49:49;2.67;;;2.47;;
21418;SDS011;10870;51.384;10.316;2023-03-11T02:51:50;5.18;;;2.75;;
21418;SDS011;10870;51.384;10.316;2023-03-11T02:53:55;4.10;;;3.00;;
21418;SDS011;10870;51.384;10.316;2023-03-11T02:55:57;2.42;;;2.22;;
21418;SDS011;10870;51.384;10.316;2023-03-11T02:58:01;5.13;;;3.30;;
21418;SDS011;10870;51.384;10.316;2023-03-11T03:00:03;5.88;;;2.45;;
21418;SDS011;10870;51.384;10.316;2023-03-11T03:02:15;5.18;;;3.30;;
21418;SDS011;10870;51.384;10.316;2023-03-11T03:04:17;4.90;;;3.25;;
21418;SDS011;10870;51.384;10.316;2023-03-11T03:06:20;5.75;;;3.03;;
21418;SDS011;10870;51.384;10.316;2023-03-11T03:08:27;6.63;;;2.95;;
21418;SDS011;10870;51.384;10.316;2023-03-11T03:10:29;5.78;;;2.88;;
21418;SDS011;10870;51.384;10.316;2023-03-11T03:12:37;4.82;;;3.13;;
21418;SDS011;10870;51.384;10.316;2023-03-11T03:14:39;6.88;;;3.67;;
21418;SDS011;10870;51.384;10.316;2023-03-11T03:16:42;4.82;;;2.97;;
21418;SDS011;10870;51.384;10.316;2023-03-11T03:18:48;6.60;;;3.10;;
21418;SDS011;10870;51.384;10.316;2023-03-11T03:20:51;4.07;;;2.42;;
21418;SDS011;10870;51.384;10.316;2023-03-11T03:23:01;6.10;;;2.92;;
21418;SDS011;10870;51.384;10.316;2023-03-11T03:25:05;2.17;;;1.98;;
21418;SDS011;10870;51.384;10.316;2023-03-11T03:27:09;4.85;;;2.42;;
21418;SDS011;10870;51.384;10.316;2023-03-11T03:29:10;6.10;;;2.20;;
21418;SDS011;10870;51.384;10.316;2023-03-11T03:31:14;2.05;;;1.90;;
21418;SDS011;10870;51.384;10.316;2023-03-11T03:33:16;3.33;;;2.13;;
21418;SDS011;10870;51.384;10.316;2023-03-11T03:35:17;2.60;;;2.22;;
21418;SDS011;10870;51.384;10.316;2023-03-11T03:37:19;3.40;;;1.95;;
21418;SDS011;10870;51.384;10.316;2023-03-11T03:39:20;3.05;;;2.28;;
21418;SDS011;10870;51.384;10.316;2023-03-11T03:41:24;2.35;;;2.00;;
21418;SDS011;10870;51.384;10.316;2023-03-11T03:43:25;3.22;;;2.60;;
21418;SDS011;10870;51.384;10.316;2023-03-11T03:45:28;4.05;;;2.53;;
21418;SDS011;10870;51.384;10.316;2023-03-11T03:47:34;4.68;;;2.15;;
21418;SDS011;10870;51.384;10.316;2023-03-11T03:49:38;2.90;;;2.33;;
21418;SDS011;10870;51.384;10.316;2023-03-11T03:51:39;2.60;;;2.40;;
21418;SDS011;10870;51.384;10.316;2023-03-11T03:53:43;3.75;;;2.85;;
21418;SDS011;10870;51.384;10.316;2023-03-11T03:55:49;2.90;;;2.30;;
21418;SDS011;10870;51.384;10.316;2023-03-11T03:57:53;4.38;;;2.60;;
21418;SDS011;10870;51.384;10.316;2023-03-11T03:59:56;5.05;;;2.88;;
21418;SDS011;10870;51.384;10.316;2023-03-11T04:01:58;5.00;;;2.78;;
21418;SDS011;10870;51.384;10.316;2023-03-11T04:03:59;2.97;;;2.50;;
21418;SDS011;10870;51.384;10.316;2023-03-11T04:08:10;4.20;;;2.40;;
21418;SDS011;10870;51.384;10.316;2023-03-11T04:10:13;3.72;;;2.58;;
21418;SDS011;10870;51.384;10.316;2023-03-11T04:12:17;6.25;;;2.47;;
21418;SDS011;10870;51.384;10.316;2023-03-11T04:14:21;3.22;;;2.05;;
21418;SDS011;10870;51.384;10.316;2023-03-11T04:16:25;3.33;;;2.10;;
21418;SDS011;10870;51.384;10.316;2023-03-11T04:18:26;4.13;;;2.15;;
21418;SDS011;10870;51.384;10.316;2023-03-11T04:20:31;5.63;;;2.75;;
21418;SDS011;10870;51.384;10.316;2023-03-11T04:22:37;2.85;;;2.40;;
21418;SDS011;10870;51.384;10.316;2023-03-11T04:24:38;2.28;;;2.08;;
21418;SDS011;10870;51.384;10.316;2023-03-11T04:26:42;3.75;;;2.78;;
21418;SDS011;10870;51.384;10.316;2023-03-11T04:28:43;6.63;;;2.90;;
21418;SDS011;10870;51.384;10.316;2023-03-11T04:30:44;3.50;;;2.63;;
21418;SDS011;10870;51.384;10.316;2023-03-11T04:32:48;9.45;;;3.28;;
21418;SDS011;10870;51.384;10.316;2023-03-11T04:34:50;10.27;;;2.97;;
21418;SDS011;10870;51.384;10.316;2023-03-11T04:36:52;2.72;;;1.90;;
21418;SDS011;10870;51.384;10.316;2023-03-11T04:38:55;9.02;;;3.08;;
21418;SDS011;10870;51.384;10.316;2023-03-11T04:41:00;5.03;;;2.65;;
21418;SDS011;10870;51.384;10.316;2023-03-11T04:43:03;6.53;;;2.28;;
21418;SDS011;10870;51.384;10.316;2023-03-11T04:45:05;10.23;;;3.42;;
21418;SDS011;10870;51.384;10.316;2023-03-11T04:47:12;5.03;;;2.97;;
21418;SDS011;10870;51.384;10.316;2023-03-11T04:49:15;8.20;;;2.95;;
21418;SDS011;10870;51.384;10.316;2023-03-11T04:51:17;7.80;;;3.13;;
21418;SDS011;10870;51.384;10.316;2023-03-11T04:53:19;4.95;;;2.80;;
21418;SDS011;10870;51.384;10.316;2023-03-11T04:55:20;7.97;;;3.30;;
21418;SDS011;10870;51.384;10.316;2023-03-11T04:57:23;8.70;;;2.95;;
21418;SDS011;10870;51.384;10.316;2023-03-11T04:59:26;6.03;;;3.05;;
21418;SDS011;10870;51.384;10.316;2023-03-11T05:01:27;4.28;;;3.03;;
21418;SDS011;10870;51.384;10.316;2023-03-11T05:03:29;7.28;;;2.95;;
21418;SDS011;10870;51.384;10.316;2023-03-11T05:05:32;7.28;;;3.22;;
21418;SDS011;10870;51.384;10.316;2023-03-11T05:07:35;6.25;;;3.15;;
21418;SDS011;10870;51.384;10.316;2023-03-11T05:09:36;6.13;;;3.47;;
21418;SDS011;10870;51.384;10.316;2023-03-11T05:11:42;9.05;;;2.78;;
21418;SDS011;10870;51.384;10.316;2023-03-11T05:13:46;10.88;;;4.07;;
21418;SDS011;10870;51.384;10.316;2023-03-11T05:15:47;6.95;;;3.85;;
21418;SDS011;10870;51.384;10.316;2023-03-11T05:17:49;4.38;;;3.53;;
21418;SDS011;10870;51.384;10.316;2023-03-11T05:19:51;7.70;;;3.05;;
21418;SDS011;10870;51.384;10.316;2023-03-11T05:21:55;8.00;;;3.63;;
21418;SDS011;10870;51.384;10.316;2023-03-11T05:23:59;7.55;;;2.92;;
21418;SDS011;10870;51.384;10.316;2023-03-11T05:26:04;5.80;;;3.10;;
21418;SDS011;10870;51.384;10.316;2023-03-11T05:28:08;8.23;;;3.17;;
21418;SDS011;10870;51.384;10.316;2023-03-11T05:30:12;4.43;;;3.10;;
21418;SDS011;10870;51.384;10.316;2023-03-11T05:32:16;7.22;;;3.70;;
21418;SDS011;10870;51.384;10.316;2023-03-11T05:34:20;8.02;;;4.03;;
21418;SDS011;10870;51.384;10.316;2023-03-11T05:36:22;7.00;;;3.53;;
21418;SDS011;10870;51.384;10.316;2023-03-11T05:38:26;6.80;;;3.22;;
21418;SDS011;10870;51.384;10.316;2023-03-11T05:40:30;9.60;;;3.33;;
21418;SDS011;10870;51.384;10.316;2023-03-11T05:42:31;6.47;;;3.13;;
21418;SDS011;10870;51.384;10.316;2023-03-11T05:44:35;8.85;;;3.30;;
21418;SDS011;10870;51.384;10.316;2023-03-11T05:46:37;8.13;;;3.08;;
21418;SDS011;10870;51.384;10.316;2023-03-11T05:48:39;8.38;;;3.53;;
21418;SDS011;10870;51.384;10.316;2023-03-11T05:50:45;11.32;;;3.42;;
21418;SDS011;10870;51.384;10.316;2023-03-11T05:52:49;12.82;;;4.72;;
21418;SDS011;10870;51.384;10.316;2023-03-11T05:54:52;10.48;;;4.45;;
21418;SDS011;10870;51.384;10.316;2023-03-11T05:56:54;10.50;;;4.20;;
21418;SDS011;10870;51.384;10.316;2023-03-11T05:58:58;11.27;;;3.97;;
21418;SDS011;10870;51.384;10.316;2023-03-11T06:01:09;7.95;;;4.28;;
21418;SDS011;10870;51.384;10.316;2023-03-11T06:03:13;9.68;;;4.38;;
21418;SDS011;10870;51.384;10.316;2023-03-11T06:05:20;8.00;;;4.40;;
21418;SDS011;10870;51.384;10.316;2023-03-11T06:07:21;7.85;;;3.88;;
21418;SDS011;10870;51.384;10.316;2023-03-11T06:09:25;7.68;;;4.43;;
21418;SDS011;10870;51.384;10.316;2023-03-11T06:11:26;8.15;;;4.25;;
21418;SDS011;10870;51.384;10.316;2023-03-11T06:13:28;7.28;;;3.58;;
21418;SDS011;10870;51.384;10.316;2023-03-11T06:15:29;9.63;;;4.97;;
21418;SDS011;10870;51.384;10.316;2023-03-11T06:17:30;8.27;;;4.32;;
21418;SDS011;10870;51.384;10.316;2023-03-11T06:19:36;12.52;;;4.78;;
21418;SDS011;10870;51.384;10.316;2023-03-11T06:21:38;10.55;;;4.45;;
21418;SDS011;10870;51.384;10.316;2023-03-11T06:23:39;15.07;;;4.68;;
21418;SDS011;10870;51.384;10.316;2023-03-11T06:25:40;15.20;;;5.07;;
21418;SDS011;10870;51.384;10.316;2023-03-11T06:27:49;14.90;;;5.65;;
21418;SDS011;10870;51.384;10.316;2023-03-11T06:29:58;10.65;;;4.85;;
21418;SDS011;10870;51.384;10.316;2023-03-11T06:32:02;11.13;;;5.40;;
21418;SDS011;10870;51.384;10.316;2023-03-11T06:34:03;14.68;;;5.35;;
21418;SDS011;10870;51.384;10.316;2023-03-11T06:36:05;9.18;;;4.97;;
21418;SDS011;10870;51.384;10.316;2023-03-11T06:38:09;16.85;;;5.40;;
21418;SDS011;10870;51.384;10.316;2023-03-11T06:40:13;10.90;;;4.72;;
21418;SDS011;10870;51.384;10.316;2023-03-11T06:42:15;10.35;;;5.32;;
21418;SDS011;10870;51.384;10.316;2023-03-11T06:44:16;9.43;;;4.53;;
21418;SDS011;10870;51.384;10.316;2023-03-11T06:46:21;8.00;;;5.38;;
21418;SDS011;10870;51.384;10.316;2023-03-11T06:48:22;15.85;;;5.18;;
21418;SDS011;10870;51.384;10.316;2023-03-11T06:50:26;6.18;;;3.72;;
21418;SDS011;10870;51.384;10.316;2023-03-11T06:52:28;7.97;;;4.50;;
21418;SDS011;10870;51.384;10.316;2023-03-11T06:54:31;8.93;;;4.28;;
21418;SDS011;10870;51.384;10.316;2023-03-11T06:56:33;13.40;;;5.63;;
21418;SDS011;10870;51.384;10.316;2023-03-11T06:58:35;11.50;;;5.85;;
21418;SDS011;10870;51.384;10.316;2023-03-11T07:00:41;9.18;;;5.03;;
21418;SDS011;10870;51.384;10.316;2023-03-11T07:02:42;11.60;;;5.32;;
21418;SDS011;10870;51.384;10.316;2023-03-11T07:04:43;11.20;;;5.93;;
21418;SDS011;10870;51.384;10.316;2023-03-11T07:06:48;8.73;;;3.50;;
21418;SDS011;10870;51.384;10.316;2023-03-11T07:08:51;7.75;;;4.80;;
21418;SDS011;10870;51.384;10.316;2023-03-11T07:11:06;11.75;;;6.03;;
21418;SDS011;10870;51.384;10.316;2023-03-11T07:13:11;12.70;;;3.97;;
21418;SDS011;10870;51.384;10.316;2023-03-11T07:15:15;8.38;;;4.05;;
21418;SDS011;10870;51.384;10.316;2023-03-11T07:17:16;8.35;;;4.00;;
21418;SDS011;10870;51.384;10.316;2023-03-11T07:19:18;6.70;;;3.72;;
21418;SDS011;10870;51.384;10.316;2023-03-11T07:21:20;12.55;;;4.03;;
21418;SDS011;10870;51.384;10.316;2023-03-11T07:23:24;10.85;;;4.57;;
21418;SDS011;10870;51.384;10.316;2023-03-11T07:25:27;15.85;;;3.85;;
21418;SDS011;10870;51.384;10.316;2023-03-11T07:27:28;6.28;;;3.72;;
21418;SDS011;10870;51.384;10.316;2023-03-11T07:29:30;10.10;;;3.40;;
21418;SDS011;10870;51.384;10.316;2023-03-11T07:31:32;8.07;;;3.47;;
21418;SDS011;10870;51.384;10.316;2023-03-11T07:33:37;10.68;;;3.85;;
21418;SDS011;10870;51.384;10.316;2023-03-11T07:35:38;8.07;;;3.75;;
21418;SDS011;10870;51.384;10.316;2023-03-11T07:37:40;6.93;;;3.90;;
21418;SDS011;10870;51.384;10.316;2023-03-11T07:39:41;9.43;;;4.50;;
21418;SDS011;10870;51.384;10.316;2023-03-11T07:41:43;8.43;;;3.28;;
21418;SDS011;10870;51.384;10.316;2023-03-11T07:43:44;8.95;;;3.63;;
21418;SDS011;10870;51.384;10.316;2023-03-11T07:45:46;7.65;;;3.20;;
21418;SDS011;10870;51.384;10.316;2023-03-11T07:47:50;7.38;;;3.65;;
21418;SDS011;10870;51.384;10.316;2023-03-11T07:49:52;8.32;;;3.83;;
21418;SDS011;10870;51.384;10.316;2023-03-11T07:51:53;11.50;;;4.40;;
21418;SDS011;10870;51.384;10.316;2023-03-11T07:53:57;7.43;;;3.78;;
21418;SDS011;10870;51.384;10.316;2023-03-11T07:56:02;7.82;;;3.38;;
21418;SDS011;10870;51.384;10.316;2023-03-11T07:58:03;12.25;;;4.22;;
21418;SDS011;10870;51.384;10.316;2023-03-11T08:00:07;6.80;;;2.90;;
21418;SDS011;10870;51.384;10.316;2023-03-11T08:02:09;7.53;;;2.95;;
21418;SDS011;10870;51.384;10.316;2023-03-11T08:04:13;5.80;;;3.53;;
21418;SDS011;10870;51.384;10.316;2023-03-11T08:06:19;10.77;;;2.88;;
21418;SDS011;10870;51.384;10.316;2023-03-11T08:08:21;10.07;;;3.70;;
21418;SDS011;10870;51.384;10.316;2023-03-11T08:10:23;6.95;;;3.45;;
21418;SDS011;10870;51.384;10.316;2023-03-11T08:12:27;6.80;;;3.75;;
21418;SDS011;10870;51.384;10.316;2023-03-11T08:14:31;8.05;;;3.88;;
21418;SDS011;10870;51.384;10.316;2023-03-11T08:16:33;8.68;;;3.72;;
21418;SDS011;10870;51.384;10.316;2023-03-11T08:18:34;10.38;;;3.40;;
21418;SDS011;10870;51.384;10.316;2023-03-11T08:20:36;9.48;;;3.80;;
21418;SDS011;10870;51.384;10.316;2023-03-11T08:22:37;6.47;;;3.10;;
21418;SDS011;10870;51.384;10.316;2023-03-11T08:24:39;17.42;;;5.03;;
21418;SDS011;10870;51.384;10.316;2023-03-11T08:26:43;12.80;;;3.40;;
21418;SDS011;10870;51.384;10.316;2023-03-11T08:28:45;5.00;;;3.25;;
21418;SDS011;10870;51.384;10.316;2023-03-11T08:30:46;7.65;;;4.28;;
21418;SDS011;10870;51.384;10.316;2023-03-11T08:32:48;7.53;;;3.30;;
21418;SDS011;10870;51.384;10.316;2023-03-11T08:34:49;17.85;;;4.05;;
21418;SDS011;10870;51.384;10.316;2023-03-11T08:36:53;7.30;;;3.75;;
21418;SDS011;10870;51.384;10.316;2023-03-11T08:38:55;5.38;;;3.13;;
21418;SDS011;10870;51.384;10.316;2023-03-11T08:40:56;6.38;;;3.58;;
21418;SDS011;10870;51.384;10.316;2023-03-11T08:42:57;5.20;;;2.90;;
21418;SDS011;10870;51.384;10.316;2023-03-11T08:44:59;9.50;;;3.40;;
21418;SDS011;10870;51.384;10.316;2023-03-11T08:47:02;8.13;;;3.30;;
21418;SDS011;10870;51.384;10.316;2023-03-11T08:49:04;8.93;;;2.67;;
21418;SDS011;10870;51.384;10.316;2023-03-11T08:51:10;6.15;;;3.05;;
21418;SDS011;10870;51.384;10.316;2023-03-11T08:53:11;7.80;;;3.53;;
21418;SDS011;10870;51.384;10.316;2023-03-11T08:55:13;6.47;;;3.63;;
21418;SDS011;10870;51.384;10.316;2023-03-11T08:57:16;7.70;;;3.30;;
21418;SDS011;10870;51.384;10.316;2023-03-11T08:59:18;7.80;;;2.75;;
21418;SDS011;10870;51.384;10.316;2023-03-11T09:01:19;8.55;;;3.05;;
21418;SDS011;10870;51.384;10.316;2023-03-11T09:03:25;4.25;;;3.10;;
21418;SDS011;10870;51.384;10.316;2023-03-11T09:05:29;13.18;;;2.92;;
21418;SDS011;10870;51.384;10.316;2023-03-11T09:07:30;11.27;;;3.15;;
21418;SDS011;10870;51.384;10.316;2023-03-11T09:09:31;9.73;;;3.15;;
21418;SDS011;10870;51.384;10.316;2023-03-11T09:11:35;7.93;;;3.42;;
21418;SDS011;10870;51.384;10.316;2023-03-11T09:13:36;12.20;;;3.85;;
21418;SDS011;10870;51.384;10.316;2023-03-11T09:15:40;5.72;;;2.30;;
21418;SDS011;10870;51.384;10.316;2023-03-11T09:17:43;13.02;;;4.65;;
21418;SDS011;10870;51.384;10.316;2023-03-11T09:19:46;5.78;;;2.95;;
21418;SDS011;10870;51.384;10.316;2023-03-11T09:21:48;6.45;;;2.60;;
21418;SDS011;10870;51.384;10.316;2023-03-11T09:23:49;7.55;;;2.95;;
21418;SDS011;10870;51.384;10.316;2023-03-11T09:25:51;18.27;;;5.75;;
21418;SDS011;10870;51.384;10.316;2023-03-11T09:27:53;12.20;;;5.20;;
21418;SDS011;10870;51.384;10.316;2023-03-11T09:29:54;4.88;;;3.22;;
21418;SDS011;10870;51.384;10.316;2023-03-11T09:31:56;13.02;;;3.13;;
21418;SDS011;10870;51.384;10.316;2023-03-11T09:33:58;6.47;;;2.85;;
21418;SDS011;10870;51.384;10.316;2023-03-11T09:36:01;7.97;;;3.00;;
21418;SDS011;10870;51.384;10.316;2023-03-11T09:38:03;11.18;;;4.55;;
21418;SDS011;10870;51.384;10.316;2023-03-11T09:40:04;8.05;;;3.78;;
21418;SDS011;10870;51.384;10.316;2023-03-11T09:42:14;4.38;;;2.80;;
21418;SDS011;10870;51.384;10.316;2023-03-11T09:48:41;15.57;;;3.38;;
21418;SDS011;10870;51.384;10.316;2023-03-11T09:57:30;6.05;;;2.97;;
21418;SDS011;10870;51.384;10.316;2023-03-11T09:59:33;4.90;;;2.92;;
21418;SDS011;10870;51.384;10.316;2023-03-11T10:01:41;6.88;;;3.60;;
21418;SDS011;10870;51.384;10.316;2023-03-11T10:03:47;4.65;;;2.80;;
21418;SDS011;10870;51.384;10.316;2023-03-11T10:05:57;8.38;;;3.38;;
21418;SDS011;10870;51.384;10.316;2023-03-11T10:08:02;5.25;;;2.63;;
21418;SDS011;10870;51.384;10.316;2023-03-11T10:10:12;4.93;;;2.97;;
21418;SDS011;10870;51.384;10.316;2023-03-11T10:19:10;7.60;;;2.92;;
21418;SDS011;10870;51.384;10.316;2023-03-11T10:28:10;6.30;;;3.53;;
21418;SDS011;10870;51.384;10.316;2023-03-11T10:30:19;6.65;;;3.53;;
21418;SDS011;10870;51.384;10.316;2023-03-11T10:34:42;6.22;;;2.55;;
21418;SDS011;10870;51.384;10.316;2023-03-11T10:39:18;7.43;;;3.35;;
21418;SDS011;10870;51.384;10.316;2023-03-11T10:41:26;7.53;;;3.45;;
21418;SDS011;10870;51.384;10.316;2023-03-11T10:43:43;6.63;;;2.85;;
21418;SDS011;10870;51.384;10.316;2023-03-11T10:45:45;7.20;;;2.80;;
21418;SDS011;10870;51.384;10.316;2023-03-11T10:47:50;3.35;;;2.47;;
21418;SDS011;10870;51.384;10.316;2023-03-11T10:49:54;8.35;;;2.33;;
21418;SDS011;10870;51.384;10.316;2023-03-11T10:51:55;5.13;;;2.72;;
21418;SDS011;10870;51.384;10.316;2023-03-11T10:53:58;8.75;;;2.67;;
21418;SDS011;10870;51.384;10.316;2023-03-11T10:56:00;6.63;;;3.35;;
21418;SDS011;10870;51.384;10.316;2023-03-11T10:58:10;5.65;;;2.30;;
21418;SDS011;10870;51.384;10.316;2023-03-11T11:00:16;5.25;;;2.75;;
21418;SDS011;10870;51.384;10.316;2023-03-11T11:02:49;7.82;;;3.50;;
21418;SDS011;10870;51.384;10.316;2023-03-11T11:07:23;8.98;;;3.97;;
21418;SDS011;10870;51.384;10.316;2023-03-11T11:09:32;9.27;;;4.68;;
21418;SDS011;10870;51.384;10.316;2023-03-11T11:11:36;8.75;;;5.13;;
21418;SDS011;10870;51.384;10.316;2023-03-11T11:13:40;9.15;;;3.17;;
21418;SDS011;10870;51.384;10.316;2023-03-11T11:15:58;5.30;;;2.95;;
21418;SDS011;10870;51.384;10.316;2023-03-11T11:18:01;9.55;;;3.20;;
21418;SDS011;10870;51.384;10.316;2023-03-11T11:20:12;8.63;;;2.65;;
21418;SDS011;10870;51.384;10.316;2023-03-11T11:22:17;8.10;;;3.55;;
21418;SDS011;10870;51.384;10.316;2023-03-11T11:24:25;8.50;;;3.10;;
21418;SDS011;10870;51.384;10.316;2023-03-11T11:26:26;14.55;;;3.40;;
21418;SDS011;10870;51.384;10.316;2023-03-11T11:28:27;7.93;;;3.20;;
21418;SDS011;10870;51.384;10.316;2023-03-11T11:30:29;10.43;;;3.40;;
21418;SDS011;10870;51.384;10.316;2023-03-11T11:32:31;8.48;;;2.80;;
21418;SDS011;10870;51.384;10.316;2023-03-11T11:34:34;9.73;;;2.53;;
21418;SDS011;10870;51.384;10.316;2023-03-11T11:36:35;6.82;;;2.35;;
21418;SDS011;10870;51.384;10.316;2023-03-11T11:38:38;4.22;;;2.88;;
21418;SDS011;10870;51.384;10.316;2023-03-11T11:40:39;10.85;;;3.83;;
21418;SDS011;10870;51.384;10.316;2023-03-11T11:44:59;5.97;;;2.88;;
21418;SDS011;10870;51.384;10.316;2023-03-11T11:47:11;5.60;;;2.65;;
21418;SDS011;10870;51.384;10.316;2023-03-11T11:49:19;4.90;;;2.15;;
21418;SDS011;10870;51.384;10.316;2023-03-11T11:51:25;6.03;;;2.40;;
21418;SDS011;10870;51.384;10.316;2023-03-11T11:53:35;8.65;;;2.25;;
21418;SDS011;10870;51.384;10.316;2023-03-11T11:55:46;6.85;;;2.20;;
21418;SDS011;10870;51.384;10.316;2023-03-11T11:57:48;11.63;;;3.63;;
21418;SDS011;10870;51.384;10.316;2023-03-11T11:59:50;11.35;;;4.18;;
21418;SDS011;10870;51.384;10.316;2023-03-11T12:04:24;5.03;;;2.20;;
21418;SDS011;10870;51.384;10.316;2023-03-11T12:06:36;16.85;;;2.03;;
21418;SDS011;10870;51.384;10.316;2023-03-11T12:15:15;8.07;;;3.75;;
21418;SDS011;10870;51.384;10.316;2023-03-11T12:17:18;7.10;;;2.70;;
21418;SDS011;10870;51.384;10.316;2023-03-11T12:19:27;4.22;;;2.08;;
21418;SDS011;10870;51.384;10.316;2023-03-11T12:23:47;11.93;;;1.95;;
21418;SDS011;10870;51.384;10.316;2023-03-11T12:28:23;4.55;;;2.25;;
21418;SDS011;10870;51.384;10.316;2023-03-11T12:30:31;4.38;;;1.85;;
21418;SDS011;10870;51.384;10.316;2023-03-11T12:32:35;15.85;;;2.92;;
21418;SDS011;10870;51.384;10.316;2023-03-11T12:34:38;10.48;;;2.78;;
21418;SDS011;10870;51.384;10.316;2023-03-11T12:36:43;5.80;;;2.55;;
21418;SDS011;10870;51.384;10.316;2023-03-11T12:38:46;6.72;;;2.15;;
21418;SDS011;10870;51.384;10.316;2023-03-11T12:40:49;4.50;;;1.77;;
21418;SDS011;10870;51.384;10.316;2023-03-11T12:42:50;4.63;;;1.58;;
21418;SDS011;10870;51.384;10.316;2023-03-11T12:44:58;6.13;;;1.48;;
21418;SDS011;10870;51.384;10.316;2023-03-11T12:49:17;8.00;;;2.95;;
21418;SDS011;10870;51.384;10.316;2023-03-11T12:58:30;7.57;;;2.92;;
21418;SDS011;10870;51.384;10.316;2023-03-11T13:00:38;11.85;;;2.40;;
21418;SDS011;10870;51.384;10.316;2023-03-11T13:09:11;7.95;;;3.00;;
21418;SDS011;10870;51.384;10.316;2023-03-11T13:11:27;6.18;;;2.13;;
21418;SDS011;10870;51.384;10.316;2023-03-11T13:13:39;3.92;;;1.80;;
21418;SDS011;10870;51.384;10.316;2023-03-11T13:15:40;6.88;;;1.30;;
21418;SDS011;10870;51.384;10.316;2023-03-11T13:20:01;2.40;;;1.23;;
21418;SDS011;10870;51.384;10.316;2023-03-11T13:22:04;8.05;;;2.13;;
21418;SDS011;10870;51.384;10.316;2023-03-11T13:26:29;7.05;;;1.60;;
21418;SDS011;10870;51.384;10.316;2023-03-11T13:33:32;5.53;;;1.80;;
21418;SDS011;10870;51.384;10.316;2023-03-11T13:41:56;5.63;;;2.38;;